createdAt,value
2019-03-30T00:00:01.242Z,178.80
2019-03-30T00:02:35.773Z,173.07
2019-03-30T00:05:08.492Z,164.00
2019-03-30T00:07:40.746Z,179.77
2019-03-30T00:10:12.106Z,170.43
2019-03-30T00:12:45.022Z,170.10
2019-03-30T00:15:16.297Z,158.80
2019-03-30T00:17:51.424Z,160.63
2019-03-30T00:20:23.176Z,172.73
2019-03-30T00:22:54.489Z,165.33
2019-03-30T00:25:25.866Z,150.47
2019-03-30T00:27:58.181Z,183.97
2019-03-30T00:30:31.759Z,165.00
2019-03-30T00:33:03.098Z,188.43
2019-03-30T00:35:35.978Z,175.97
2019-03-30T00:38:07.225Z,165.13
2019-03-30T00:40:38.495Z,164.93
2019-03-30T00:43:12.176Z,169.43
2019-03-30T00:45:47.650Z,172.33
2019-03-30T00:48:18.929Z,161.87
2019-03-30T00:50:50.353Z,167.67
2019-03-30T00:53:21.644Z,192.13
2019-03-30T00:55:54.227Z,188.57
2019-03-30T00:58:25.732Z,177.90
2019-03-30T01:00:59.443Z,184.93
2019-03-30T01:03:32.361Z,189.23
2019-03-30T01:06:03.797Z,171.50
2019-03-30T01:08:35.033Z,166.37
2019-03-30T01:11:06.353Z,181.10
2019-03-30T01:13:37.734Z,168.80
2019-03-30T01:16:11.127Z,180.00
2019-03-30T01:18:47.566Z,191.57
2019-03-30T01:21:18.954Z,170.00
2019-03-30T01:23:50.891Z,183.70
2019-03-30T01:26:22.238Z,188.80
2019-03-30T01:28:58.207Z,176.80
2019-03-30T01:31:30.802Z,177.70
2019-03-30T01:34:02.121Z,180.10
2019-03-30T01:36:35.484Z,171.80
2019-03-30T01:39:10.494Z,174.00
2019-03-30T01:41:41.925Z,167.93
2019-03-30T01:44:13.304Z,154.30
2019-03-30T01:46:44.606Z,173.77
2019-03-30T01:49:15.851Z,162.10
2019-03-30T02:10:51.719Z,139.40
2019-03-30T02:13:23.084Z,150.70
2019-03-30T02:15:54.546Z,161.63
2019-03-30T02:18:25.929Z,155.57
2019-03-30T02:20:57.363Z,159.60
2019-03-30T02:23:34.074Z,149.27
2019-03-30T02:26:10.335Z,143.47
2019-03-30T02:28:41.690Z,141.93
2019-03-30T02:31:13.167Z,148.33
2019-03-30T02:33:44.668Z,141.40
2019-03-30T02:36:15.967Z,133.27
2019-03-30T02:38:49.670Z,143.73
2019-03-30T02:41:24.533Z,151.23
2019-03-30T02:43:56.005Z,136.43
2019-03-30T02:46:27.406Z,142.57
2019-03-30T02:48:58.817Z,150.40
2019-03-30T02:51:35.619Z,132.87
2019-03-30T02:54:15.740Z,150.53
2019-03-30T02:57:02.247Z,136.33
2019-03-30T02:59:35.049Z,147.13
2019-03-30T03:02:06.474Z,136.53
2019-03-30T03:04:37.949Z,132.77
2019-03-30T03:07:12.180Z,132.00
2019-03-30T03:09:52.099Z,127.77
2019-03-30T03:12:23.590Z,111.97
2019-03-30T03:14:55.099Z,127.07
2019-03-30T03:17:28.668Z,115.30
2019-03-30T03:20:00.486Z,134.43
2019-03-30T03:22:32.947Z,128.67
2019-03-30T03:25:04.415Z,127.60
2019-03-30T03:27:45.677Z,122.23
2019-03-30T03:30:21.533Z,129.37
2019-03-30T03:32:52.928Z,123.77
2019-03-30T03:35:34.976Z,111.57
2019-03-30T03:38:24.490Z,128.77
2019-03-30T03:40:57.258Z,112.87
2019-03-30T03:43:31.929Z,115.13
2019-03-30T03:46:03.382Z,112.10
2019-03-30T03:48:34.569Z,121.03
2019-03-30T03:51:24.514Z,127.37
2019-03-30T03:53:48.673Z,123.23
2019-03-30T03:56:22.343Z,127.57
2019-03-30T03:58:56.623Z,120.20
2019-03-30T04:01:31.772Z,135.93
2019-03-30T04:04:05.677Z,114.70
2019-03-30T04:06:44.735Z,113.30
2019-03-30T04:09:18.406Z,122.53
2019-03-30T04:11:58.502Z,119.43
2019-03-30T04:14:31.620Z,126.80
2019-03-30T04:17:03.076Z,116.83
2019-03-30T04:19:36.170Z,106.87
2019-03-30T04:22:15.593Z,92.87
2019-03-30T04:24:50.866Z,114.13
2019-03-30T04:27:24.064Z,130.83
2019-03-30T04:29:55.431Z,121.17
2019-03-30T04:32:26.872Z,107.43
2019-03-30T04:34:58.339Z,120.07
2019-03-30T04:37:39.186Z,109.83
2019-03-30T04:40:14.633Z,113.70
2019-03-30T04:42:46.006Z,107.73
2019-03-30T04:45:17.321Z,105.77
2019-03-30T04:47:48.767Z,102.30
2019-03-30T04:50:21.707Z,101.13
2019-03-30T04:52:54.049Z,97.27
2019-03-30T04:55:29.182Z,93.63
2019-03-30T04:58:01.765Z,89.23
2019-03-30T05:00:33.089Z,88.47
2019-03-30T05:03:04.504Z,97.60
2019-03-30T05:05:43.420Z,96.13
2019-03-30T05:08:26.597Z,108.60
2019-03-30T05:11:03.629Z,106.47
2019-03-30T05:13:34.941Z,96.27
2019-03-30T05:16:06.262Z,110.47
2019-03-30T05:18:37.594Z,83.70
2019-03-30T05:21:10.708Z,93.67
2019-03-30T05:23:47.737Z,97.10
2019-03-30T05:26:23.621Z,83.53
2019-03-30T05:28:55.030Z,92.83
2019-03-30T05:31:26.323Z,89.40
2019-03-30T05:34:04.772Z,87.30
2019-03-30T05:36:38.655Z,85.90
2019-03-30T05:39:12.271Z,90.37
2019-03-30T05:41:43.705Z,91.33
2019-03-30T05:44:17.246Z,91.13
2019-03-30T05:46:48.597Z,92.87
2019-03-30T05:49:32.494Z,87.33
2019-03-30T05:52:27.032Z,82.30
2019-03-30T05:55:00.484Z,81.47
2019-03-30T05:57:31.882Z,79.00
2019-03-30T06:00:03.384Z,73.27
2019-03-30T06:02:34.882Z,73.77
2019-03-30T06:05:20.307Z,70.70
2019-03-30T06:07:54.704Z,70.23
2019-03-30T06:10:26.214Z,62.10
2019-03-30T06:12:57.527Z,61.73
2019-03-30T06:15:29.774Z,64.07
2019-03-30T06:18:01.209Z,61.90
2019-03-30T06:20:37.076Z,60.13
2019-03-30T06:23:09.951Z,59.17
2019-03-30T06:25:42.282Z,55.20
2019-03-30T06:28:13.629Z,52.33
2019-03-30T06:30:45.002Z,52.63
2019-03-30T06:33:16.452Z,54.43
2019-03-30T06:36:03.855Z,54.20
2019-03-30T06:38:45.365Z,50.23
2019-03-30T06:41:18.652Z,56.47
2019-03-30T06:43:50.022Z,49.90
2019-03-30T06:46:21.332Z,58.03
2019-03-30T06:48:58.825Z,50.37
2019-03-30T06:51:43.604Z,54.07
2019-03-30T06:54:24.538Z,51.17
2019-03-30T06:56:56.076Z,49.37
2019-03-30T06:59:27.537Z,49.63
2019-03-30T07:01:58.911Z,49.80
2019-03-30T07:04:31.799Z,46.80
2019-03-30T07:07:08.196Z,47.47
2019-03-30T07:09:41.267Z,42.47
2019-03-30T07:12:13.515Z,45.27
2019-03-30T07:14:50.886Z,42.87
2019-03-30T07:17:28.662Z,50.33
2019-03-30T07:20:02.109Z,45.37
2019-03-30T07:22:40.336Z,42.33
2019-03-30T07:25:10.236Z,45.40
2019-03-30T07:27:43.990Z,42.67
2019-03-30T07:30:18.448Z,44.60
2019-03-30T07:32:49.841Z,41.17
2019-03-30T07:35:22.507Z,43.60
2019-03-30T07:37:53.824Z,37.57
2019-03-30T07:40:25.159Z,36.27
2019-03-30T07:42:56.558Z,37.80
2019-03-30T07:45:30.642Z,35.83
2019-03-30T07:48:01.955Z,41.53
2019-03-30T07:50:33.306Z,37.47
2019-03-30T07:53:04.677Z,41.33
2019-03-30T07:55:35.991Z,38.40
2019-03-30T07:58:07.463Z,35.53
2019-03-30T08:00:38.799Z,39.47
2019-03-30T08:03:10.073Z,39.33
2019-03-30T08:06:11.009Z,34.47
2019-03-30T08:08:42.354Z,38.33
2019-03-30T08:11:27.731Z,37.33
2019-03-30T08:13:58.986Z,35.70
2019-03-30T08:16:39.506Z,37.17
2019-03-30T08:19:10.895Z,33.20
2019-03-30T08:21:42.245Z,36.80
2019-03-30T08:24:13.559Z,34.73
2019-03-30T08:26:47.194Z,40.60
2019-03-30T08:29:18.568Z,39.37
2019-03-30T08:31:50.999Z,37.30
2019-03-30T08:34:22.270Z,38.93
2019-03-30T08:36:53.697Z,39.53
2019-03-30T08:39:28.994Z,35.03
2019-03-30T08:42:02.060Z,42.67
2019-03-30T08:44:33.441Z,36.10
2019-03-30T08:47:06.366Z,35.20
2019-03-30T08:49:37.759Z,36.97
2019-03-30T08:52:09.367Z,36.27
2019-03-30T08:54:43.099Z,34.80
2019-03-30T08:57:14.595Z,32.40
2019-03-30T08:59:55.981Z,34.10
2019-03-30T09:02:27.390Z,36.90
2019-03-30T09:05:01.978Z,36.63
2019-03-30T09:07:34.895Z,32.70
2019-03-30T09:10:07.887Z,35.53
2019-03-30T09:12:39.588Z,34.80
2019-03-30T09:15:11.030Z,34.27
2019-03-30T09:17:51.790Z,36.30
2019-03-30T09:20:23.113Z,35.87
2019-03-30T09:22:54.545Z,34.10
2019-03-30T09:25:25.900Z,31.07
2019-03-30T09:27:57.476Z,34.70
2019-03-30T09:30:28.981Z,37.70
2019-03-30T09:33:00.465Z,31.43
2019-03-30T09:35:31.994Z,33.07
2019-03-30T09:38:03.357Z,33.03
2019-03-30T09:40:34.719Z,35.13
2019-03-30T09:43:06.085Z,29.40
2019-03-30T09:45:37.490Z,31.47
2019-03-30T09:48:09.051Z,32.17
2019-03-30T09:50:40.503Z,37.60
2019-03-30T09:53:11.943Z,32.93
2019-03-30T09:55:43.362Z,32.97
2019-03-30T09:58:14.950Z,31.90
2019-03-30T10:00:46.445Z,32.23
2019-03-30T10:03:24.006Z,33.70
2019-03-30T10:06:01.024Z,30.63
2019-03-30T10:08:32.539Z,31.97
2019-03-30T10:11:05.092Z,34.50
2019-03-30T10:13:36.421Z,35.37
2019-03-30T10:16:09.454Z,35.53
2019-03-30T10:18:44.348Z,34.77
2019-03-30T10:21:20.209Z,33.60
2019-03-30T10:24:05.774Z,36.97
2019-03-30T10:26:43.056Z,30.87
2019-03-30T10:29:20.826Z,32.87
2019-03-30T10:31:59.875Z,35.73
2019-03-30T10:34:39.487Z,37.33
2019-03-30T10:37:15.363Z,36.37
2019-03-30T10:39:48.947Z,33.00
2019-03-30T10:42:26.929Z,33.70
2019-03-30T10:44:59.991Z,32.40
2019-03-30T10:47:31.498Z,29.77
2019-03-30T10:50:04.321Z,33.73
2019-03-30T10:52:39.609Z,33.47
2019-03-30T10:55:13.904Z,34.17
2019-03-30T10:57:45.354Z,33.23
2019-03-30T11:00:42.346Z,31.87
2019-03-30T11:03:14.864Z,35.57
2019-03-30T11:06:00.404Z,32.23
2019-03-30T11:08:32.170Z,30.87
2019-03-30T11:11:06.552Z,33.57
2019-03-30T11:13:40.469Z,33.90
2019-03-30T11:16:44.186Z,33.87
2019-03-30T11:19:44.913Z,36.17
2019-03-30T11:22:19.213Z,34.70
2019-03-30T11:24:50.710Z,35.10
2019-03-30T11:27:22.030Z,34.27
2019-03-30T11:29:53.436Z,34.73
2019-03-30T11:32:25.276Z,37.13
2019-03-30T11:34:56.698Z,31.40
2019-03-30T11:37:28.049Z,36.23
2019-03-30T11:39:59.350Z,36.70
2019-03-30T11:42:30.694Z,34.50
2019-03-30T11:45:03.614Z,35.80
2019-03-30T11:47:44.997Z,35.80
2019-03-30T11:50:17.472Z,37.00
2019-03-30T11:52:48.859Z,32.70
2019-03-30T11:55:22.010Z,32.90
2019-03-30T11:57:53.142Z,29.63
2019-03-30T12:00:24.819Z,32.87
2019-03-30T12:02:56.161Z,31.20
2019-03-30T12:05:27.437Z,37.73
2019-03-30T12:07:58.970Z,32.93
2019-03-30T12:10:30.339Z,36.30
2019-03-30T12:13:02.732Z,32.73
2019-03-30T12:15:34.122Z,31.00
2019-03-30T12:18:05.484Z,37.10
2019-03-30T12:20:36.890Z,33.67
2019-03-30T12:23:08.122Z,33.17
2019-03-30T12:25:39.447Z,29.37
2019-03-30T12:28:10.811Z,35.10
2019-03-30T12:30:42.196Z,35.27
2019-03-30T12:33:13.555Z,32.47
2019-03-30T12:35:44.939Z,34.50
2019-03-30T12:38:16.261Z,34.87
2019-03-30T12:40:48.630Z,32.80
2019-03-30T12:43:19.964Z,31.97
2019-03-30T12:45:51.339Z,31.53
2019-03-30T12:48:22.679Z,32.40
2019-03-30T12:50:54.073Z,28.97
2019-03-30T12:53:25.437Z,31.57
2019-03-30T12:55:56.721Z,33.63
2019-03-30T12:58:28.048Z,31.50
2019-03-30T13:00:59.653Z,29.30
2019-03-30T13:03:30.962Z,34.73
2019-03-30T13:06:02.271Z,36.40
2019-03-30T13:08:33.580Z,35.00
2019-03-30T13:11:05.002Z,32.87
2019-03-30T13:13:36.405Z,31.77
2019-03-30T13:16:07.803Z,36.80
2019-03-30T13:18:39.085Z,33.87
2019-03-30T13:21:10.385Z,40.07
2019-03-30T13:23:41.748Z,33.87
2019-03-30T13:26:12.987Z,32.50
2019-03-30T13:28:44.353Z,31.50
2019-03-30T13:31:15.749Z,33.50
2019-03-30T13:33:48.614Z,35.67
2019-03-30T13:36:36.830Z,37.13
2019-03-30T13:39:09.053Z,36.83
2019-03-30T13:41:40.500Z,38.60
2019-03-30T13:44:11.926Z,37.77
2019-03-30T13:46:43.384Z,37.60
2019-03-30T13:49:19.058Z,38.17
2019-03-30T13:51:51.270Z,37.27
2019-03-30T13:54:22.601Z,40.63
2019-03-30T13:56:53.948Z,39.63
2019-03-30T13:59:25.417Z,39.10
2019-03-30T14:01:59.062Z,45.43
2019-03-30T14:04:31.614Z,42.87
2019-03-30T14:07:02.951Z,46.27
2019-03-30T14:09:34.226Z,49.80
2019-03-30T14:12:06.132Z,47.63
2019-03-30T14:14:39.742Z,44.33
2019-03-30T14:17:11.166Z,45.60
2019-03-30T14:19:42.625Z,47.80
2019-03-30T14:22:14.034Z,47.97
2019-03-30T14:24:45.461Z,44.37
2019-03-30T14:27:18.524Z,42.40
2019-03-30T14:29:49.977Z,51.37
2019-03-30T14:32:21.329Z,46.30
2019-03-30T14:34:52.698Z,50.37
2019-03-30T14:37:24.067Z,50.90
2019-03-30T14:39:57.133Z,50.13
2019-03-30T14:42:29.704Z,63.37
2019-03-30T14:45:01.114Z,50.97
2019-03-30T14:47:35.000Z,50.50
2019-03-30T14:50:10.143Z,57.63
2019-03-30T14:52:43.779Z,60.87
2019-03-30T14:55:15.395Z,49.93
2019-03-30T14:57:46.921Z,51.43
2019-03-30T15:00:18.807Z,54.37
2019-03-30T15:02:54.439Z,58.83
2019-03-30T15:05:26.139Z,56.50
2019-03-30T15:07:57.592Z,54.57
2019-03-30T15:10:39.075Z,58.13
2019-03-30T15:13:10.405Z,61.83
2019-03-30T15:15:41.897Z,60.17
2019-03-30T15:18:13.333Z,66.97
2019-03-30T15:20:45.098Z,63.93
2019-03-30T15:23:16.893Z,62.90
2019-03-30T15:25:48.274Z,69.70
2019-03-30T15:28:19.645Z,69.17
2019-03-30T15:30:51.098Z,69.77
2019-03-30T15:33:22.462Z,69.03
2019-03-30T15:35:53.793Z,64.57
2019-03-30T15:38:27.107Z,65.33
2019-03-30T15:41:01.403Z,68.30
2019-03-30T15:43:38.408Z,64.30
2019-03-30T15:46:07.429Z,63.37
2019-03-30T15:48:38.743Z,60.30
2019-03-30T15:51:10.106Z,58.27
2019-03-30T15:53:43.773Z,62.37
2019-03-30T15:56:15.261Z,59.27
2019-03-30T15:58:48.210Z,65.93
2019-03-30T16:01:19.525Z,64.30
2019-03-30T16:03:50.825Z,67.93
2019-03-30T16:06:22.166Z,70.53
2019-03-30T16:08:53.490Z,69.17
2019-03-30T16:11:24.897Z,71.77
2019-03-30T16:13:56.282Z,67.57
2019-03-30T16:16:27.682Z,72.37
2019-03-30T16:19:45.724Z,71.83
2019-03-30T16:22:17.622Z,75.67
2019-03-30T16:24:49.025Z,67.60
2019-03-30T16:27:28.715Z,70.83
2019-03-30T16:29:58.435Z,64.17
2019-03-30T16:32:28.718Z,62.17
2019-03-30T16:35:00.111Z,59.83
2019-03-30T16:37:33.391Z,59.93
2019-03-30T16:40:05.341Z,63.70
2019-03-30T16:42:39.429Z,53.33
2019-03-30T16:45:10.783Z,52.97
2019-03-30T16:47:42.110Z,54.43
2019-03-30T16:50:13.734Z,58.43
2019-03-30T16:52:45.105Z,64.90
2019-03-30T16:55:16.466Z,63.57
2019-03-30T16:57:47.818Z,64.20
2019-03-30T17:00:19.424Z,58.93
2019-03-30T17:02:50.813Z,65.17
2019-03-30T17:05:22.166Z,63.40
2019-03-30T17:07:53.404Z,67.70
2019-03-30T17:10:25.170Z,77.70
2019-03-30T17:12:56.580Z,78.70
2019-03-30T17:15:28.039Z,78.70
2019-03-30T17:17:59.494Z,72.80
2019-03-30T17:20:30.873Z,74.03
2019-03-30T17:23:02.355Z,75.43
2019-03-30T17:25:33.756Z,78.07
2019-03-30T17:28:07.064Z,75.80
2019-03-30T17:30:39.630Z,77.97
2019-03-30T17:33:11.058Z,76.73
2019-03-30T17:35:42.535Z,77.13
2019-03-30T17:38:13.869Z,72.50
2019-03-30T17:40:45.219Z,74.17
2019-03-30T17:43:16.458Z,71.13
2019-03-30T17:45:49.402Z,70.30
2019-03-30T17:48:21.602Z,65.17
2019-03-30T17:50:57.992Z,72.30
2019-03-30T17:53:27.662Z,61.17
2019-03-30T17:56:01.914Z,61.87
2019-03-30T17:58:32.122Z,65.13
2019-03-30T18:01:03.468Z,68.07
2019-03-30T18:03:34.764Z,69.20
2019-03-30T18:06:06.305Z,61.97
2019-03-30T18:08:37.638Z,63.57
2019-03-30T18:11:08.943Z,61.67
2019-03-30T18:13:41.386Z,64.57
2019-03-30T18:16:12.766Z,56.77
2019-03-30T18:18:44.171Z,56.87
2019-03-30T18:21:18.272Z,61.53
2019-03-30T18:23:49.558Z,60.37
2019-03-30T18:26:20.926Z,55.83
2019-03-30T18:28:54.382Z,62.67
2019-03-30T18:31:25.351Z,59.53
2019-03-30T18:33:58.464Z,61.07
2019-03-30T18:36:31.131Z,60.30
2019-03-30T18:39:09.688Z,63.60
2019-03-30T18:41:38.507Z,62.13
2019-03-30T18:44:10.006Z,55.87
2019-03-30T18:46:42.501Z,61.13
2019-03-30T18:49:13.781Z,61.10
2019-03-30T18:51:46.544Z,60.50
2019-03-30T18:54:18.245Z,58.80
2019-03-30T18:56:49.686Z,63.97
2019-03-30T18:59:21.018Z,63.13
2019-03-30T19:01:52.476Z,56.83
2019-03-30T19:04:23.830Z,59.40
2019-03-30T19:06:55.300Z,68.10
2019-03-30T19:09:26.755Z,62.40
2019-03-30T19:11:59.695Z,62.33
2019-03-30T19:14:31.059Z,64.97
2019-03-30T19:17:02.415Z,71.07
2019-03-30T19:19:37.729Z,62.90
2019-03-30T19:22:09.471Z,63.43
2019-03-30T19:24:40.860Z,63.83
2019-03-30T19:27:12.344Z,63.33
2019-03-30T19:29:45.240Z,63.30
2019-03-30T19:32:19.338Z,61.67
2019-03-30T19:34:50.791Z,69.40
2019-03-30T19:37:24.940Z,72.03
2019-03-30T19:39:56.414Z,67.97
2019-03-30T19:42:27.738Z,73.50
2019-03-30T19:44:59.789Z,65.30
2019-03-30T19:47:33.510Z,69.67
2019-03-30T19:50:07.690Z,72.47
2019-03-30T19:52:43.879Z,64.73
2019-03-30T19:55:17.993Z,86.10
2019-03-30T19:57:56.494Z,70.40
2019-03-30T20:00:31.033Z,75.77
2019-03-30T20:03:05.281Z,72.53
2019-03-30T20:05:58.025Z,69.00
2019-03-30T20:08:36.308Z,76.70
2019-03-30T20:11:09.844Z,79.47
2019-03-30T20:13:50.712Z,79.87
2019-03-30T20:16:28.361Z,71.53
2019-03-30T20:19:11.564Z,79.30
2019-03-30T20:21:34.743Z,86.87
2019-03-30T20:24:10.567Z,84.27
2019-03-30T20:26:43.320Z,83.30
2019-03-30T20:29:25.505Z,84.63
2019-03-30T20:31:57.183Z,85.83
2019-03-30T20:34:44.253Z,93.13
2019-03-30T20:37:18.600Z,91.13
2019-03-30T20:39:51.603Z,101.40
2019-03-30T20:42:22.985Z,102.53
2019-03-30T20:45:02.398Z,95.73
2019-03-30T20:47:38.399Z,102.13
2019-03-30T20:50:19.382Z,100.57
2019-03-30T20:52:51.979Z,92.83
2019-03-30T20:55:23.336Z,103.93
2019-03-30T20:57:56.384Z,97.70
2019-03-30T21:00:28.140Z,98.07
2019-03-30T21:02:59.596Z,98.57
2019-03-30T21:05:31.230Z,101.90
2019-03-30T21:08:02.645Z,108.67
2019-03-30T21:10:33.982Z,103.47
2019-03-30T21:13:05.602Z,104.50
2019-03-30T21:15:36.970Z,110.90
2019-03-30T21:18:08.222Z,102.10
2019-03-30T21:20:40.519Z,109.83
2019-03-30T21:23:11.839Z,99.97
2019-03-30T21:25:45.014Z,104.13
2019-03-30T21:28:16.466Z,105.37
2019-03-30T21:30:48.982Z,113.23
2019-03-30T21:33:20.392Z,105.87
2019-03-30T21:35:53.359Z,110.17
2019-03-30T21:38:24.732Z,113.47
2019-03-30T21:40:58.977Z,113.00
2019-03-30T21:43:30.348Z,123.47
2019-03-30T21:46:01.803Z,114.03
2019-03-30T21:48:36.082Z,104.80
2019-03-30T21:51:07.394Z,116.50
2019-03-30T21:53:38.788Z,117.87
2019-03-30T21:56:10.101Z,118.90
2019-03-30T21:58:44.186Z,128.80
2019-03-30T22:01:15.519Z,117.40
2019-03-30T22:03:46.903Z,130.57
2019-03-30T22:06:19.174Z,124.97
2019-03-30T22:08:52.799Z,119.10
2019-03-30T22:11:24.164Z,122.67
2019-03-30T22:13:56.629Z,125.43
2019-03-30T22:16:27.901Z,118.73
2019-03-30T22:18:59.378Z,136.70
2019-03-30T22:21:33.752Z,128.40
2019-03-30T22:24:05.091Z,123.13
2019-03-30T22:26:36.382Z,123.60
2019-03-30T22:29:07.746Z,128.30
2019-03-30T22:31:39.111Z,122.80
2019-03-30T22:34:10.529Z,127.10
2019-03-30T22:36:42.830Z,129.63
2019-03-30T22:39:14.265Z,130.27
2019-03-30T22:41:45.657Z,118.63
2019-03-30T22:44:16.975Z,129.97
2019-03-30T22:46:48.376Z,135.07
2019-03-30T22:49:19.689Z,133.87
2019-03-30T22:51:51.059Z,126.67
2019-03-30T22:54:22.333Z,141.70
2019-03-30T22:56:53.643Z,138.67
2019-03-30T22:59:26.159Z,133.23
2019-03-30T23:01:57.466Z,127.73
2019-03-30T23:04:28.710Z,133.67
2019-03-30T23:07:00.070Z,129.23
2019-03-30T23:09:32.577Z,147.57
2019-03-30T23:12:04.329Z,137.77
2019-03-30T23:14:35.754Z,160.83
2019-03-30T23:17:07.223Z,141.60
2019-03-30T23:19:38.577Z,145.43
2019-03-30T23:22:10.015Z,152.20
2019-03-30T23:24:42.250Z,145.90
2019-03-30T23:27:13.665Z,157.20
2019-03-30T23:29:44.985Z,168.90
2019-03-30T23:32:16.322Z,163.47
2019-03-30T23:34:48.676Z,189.43
2019-03-30T23:37:19.953Z,214.43
2019-03-30T23:39:51.290Z,197.27
2019-03-30T23:42:22.621Z,195.00
2019-03-30T23:44:55.102Z,216.67
2019-03-30T23:47:26.428Z,207.60
2019-03-30T23:49:57.803Z,202.77
2019-03-30T23:52:29.158Z,211.00
2019-03-30T23:55:00.415Z,226.63
2019-03-30T23:57:31.878Z,217.40
